sensor_id;sensor_type;location;lat;lon;timestamp;temperature;humidity
13205;DHT22;6667;52.634;9.226;2022-08-21T00:02:24;15.30;99.90
13205;DHT22;6667;52.634;9.226;2022-08-21T00:04:52;15.30;99.90
13205;DHT22;6667;52.634;9.226;2022-08-21T00:07:19;15.30;99.90
13205;DHT22;6667;52.634;9.226;2022-08-21T00:09:46;15.30;99.90
13205;DHT22;6667;52.634;9.226;2022-08-21T00:12:13;15.30;99.90
13205;DHT22;6667;52.634;9.226;2022-08-21T00:14:40;15.30;99.90
13205;DHT22;6667;52.634;9.226;2022-08-21T00:17:07;15.20;99.90
13205;DHT22;6667;52.634;9.226;2022-08-21T00:19:35;15.20;99.90
13205;DHT22;6667;52.634;9.226;2022-08-21T00:22:01;15.20;99.90
13205;DHT22;6667;52.634;9.226;2022-08-21T00:24:28;15.10;99.90
13205;DHT22;6667;52.634;9.226;2022-08-21T00:26:54;15.10;99.90
13205;DHT22;6667;52.634;9.226;2022-08-21T00:29:21;15.00;99.90
13205;DHT22;6667;52.634;9.226;2022-08-21T00:31:48;15.00;99.90
13205;DHT22;6667;52.634;9.226;2022-08-21T00:34:14;14.90;99.90
13205;DHT22;6667;52.634;9.226;2022-08-21T00:36:42;14.90;99.90
13205;DHT22;6667;52.634;9.226;2022-08-21T00:39:09;14.80;99.90
13205;DHT22;6667;52.634;9.226;2022-08-21T00:41:38;14.80;99.90
13205;DHT22;6667;52.634;9.226;2022-08-21T00:44:05;14.70;99.90
13205;DHT22;6667;52.634;9.226;2022-08-21T00:46:32;14.70;99.90
13205;DHT22;6667;52.634;9.226;2022-08-21T00:48:59;14.70;99.90
13205;DHT22;6667;52.634;9.226;2022-08-21T00:51:29;14.60;99.90
13205;DHT22;6667;52.634;9.226;2022-08-21T00:54:01;14.60;99.90
13205;DHT22;6667;52.634;9.226;2022-08-21T00:56:28;14.60;99.90
13205;DHT22;6667;52.634;9.226;2022-08-21T00:58:56;14.70;99.90
13205;DHT22;6667;52.634;9.226;2022-08-21T01:01:24;14.70;99.90
13205;DHT22;6667;52.634;9.226;2022-08-21T01:03:51;14.60;99.90
13205;DHT22;6667;52.634;9.226;2022-08-21T01:06:17;14.60;99.90
13205;DHT22;6667;52.634;9.226;2022-08-21T01:08:44;14.60;99.90
13205;DHT22;6667;52.634;9.226;2022-08-21T01:11:12;14.70;99.90
13205;DHT22;6667;52.634;9.226;2022-08-21T01:13:39;14.70;99.90
13205;DHT22;6667;52.634;9.226;2022-08-21T01:16:13;14.60;99.90
13205;DHT22;6667;52.634;9.226;2022-08-21T01:18:40;14.60;99.90
13205;DHT22;6667;52.634;9.226;2022-08-21T01:21:12;14.60;99.90
13205;DHT22;6667;52.634;9.226;2022-08-21T01:23:43;14.60;99.90
13205;DHT22;6667;52.634;9.226;2022-08-21T01:26:12;14.50;99.90
13205;DHT22;6667;52.634;9.226;2022-08-21T01:28:44;14.50;99.90
13205;DHT22;6667;52.634;9.226;2022-08-21T01:31:13;14.50;99.90
13205;DHT22;6667;52.634;9.226;2022-08-21T01:33:41;14.40;99.90
13205;DHT22;6667;52.634;9.226;2022-08-21T01:36:09;14.40;99.90
13205;DHT22;6667;52.634;9.226;2022-08-21T01:38:35;14.50;99.90
13205;DHT22;6667;52.634;9.226;2022-08-21T01:41:02;14.40;99.90
13205;DHT22;6667;52.634;9.226;2022-08-21T01:43:29;14.40;99.90
13205;DHT22;6667;52.634;9.226;2022-08-21T01:45:56;14.40;99.90
13205;DHT22;6667;52.634;9.226;2022-08-21T01:48:22;14.30;99.90
13205;DHT22;6667;52.634;9.226;2022-08-21T01:50:49;14.30;99.90
13205;DHT22;6667;52.634;9.226;2022-08-21T01:53:17;14.30;99.90
13205;DHT22;6667;52.634;9.226;2022-08-21T01:55:44;14.20;99.90
13205;DHT22;6667;52.634;9.226;2022-08-21T01:58:10;14.20;99.90
13205;DHT22;6667;52.634;9.226;2022-08-21T02:00:37;14.20;99.90
13205;DHT22;6667;52.634;9.226;2022-08-21T02:03:04;14.10;99.90
13205;DHT22;6667;52.634;9.226;2022-08-21T02:05:31;14.20;99.90
13205;DHT22;6667;52.634;9.226;2022-08-21T02:07:57;14.20;99.90
13205;DHT22;6667;52.634;9.226;2022-08-21T02:10:29;14.10;99.90
13205;DHT22;6667;52.634;9.226;2022-08-21T02:12:57;14.10;99.90
13205;DHT22;6667;52.634;9.226;2022-08-21T02:15:25;14.10;99.90
13205;DHT22;6667;52.634;9.226;2022-08-21T02:17:54;14.10;99.90
13205;DHT22;6667;52.634;9.226;2022-08-21T02:20:25;14.20;99.90
13205;DHT22;6667;52.634;9.226;2022-08-21T02:22:52;14.20;99.90
13205;DHT22;6667;52.634;9.226;2022-08-21T02:25:20;14.10;99.90
13205;DHT22;6667;52.634;9.226;2022-08-21T02:27:48;14.10;99.90
13205;DHT22;6667;52.634;9.226;2022-08-21T02:30:17;14.10;99.90
13205;DHT22;6667;52.634;9.226;2022-08-21T02:32:44;14.00;99.90
13205;DHT22;6667;52.634;9.226;2022-08-21T02:35:11;14.00;99.90
13205;DHT22;6667;52.634;9.226;2022-08-21T02:37:47;14.00;99.90
13205;DHT22;6667;52.634;9.226;2022-08-21T02:40:15;14.10;99.90
13205;DHT22;6667;52.634;9.226;2022-08-21T02:42:42;14.10;99.90
13205;DHT22;6667;52.634;9.226;2022-08-21T02:45:12;14.10;99.90
13205;DHT22;6667;52.634;9.226;2022-08-21T02:47:39;14.30;99.90
13205;DHT22;6667;52.634;9.226;2022-08-21T02:50:07;14.30;99.90
13205;DHT22;6667;52.634;9.226;2022-08-21T02:52:34;14.30;99.90
13205;DHT22;6667;52.634;9.226;2022-08-21T02:55:02;14.40;99.90
13205;DHT22;6667;52.634;9.226;2022-08-21T02:57:28;14.40;99.90
13205;DHT22;6667;52.634;9.226;2022-08-21T02:59:58;14.30;99.90
13205;DHT22;6667;52.634;9.226;2022-08-21T03:02:25;14.40;99.90
13205;DHT22;6667;52.634;9.226;2022-08-21T03:04:52;14.50;99.90
13205;DHT22;6667;52.634;9.226;2022-08-21T03:07:19;14.50;99.90
13205;DHT22;6667;52.634;9.226;2022-08-21T03:09:45;14.50;99.90
13205;DHT22;6667;52.634;9.226;2022-08-21T03:12:12;14.50;99.90
13205;DHT22;6667;52.634;9.226;2022-08-21T03:14:38;14.50;99.90
13205;DHT22;6667;52.634;9.226;2022-08-21T03:17:05;14.50;99.90
13205;DHT22;6667;52.634;9.226;2022-08-21T03:19:34;14.60;99.90
13205;DHT22;6667;52.634;9.226;2022-08-21T03:22:00;14.60;99.90
13205;DHT22;6667;52.634;9.226;2022-08-21T03:24:27;14.70;99.90
13205;DHT22;6667;52.634;9.226;2022-08-21T03:26:53;14.70;99.90
13205;DHT22;6667;52.634;9.226;2022-08-21T03:29:20;14.70;99.90
13205;DHT22;6667;52.634;9.226;2022-08-21T03:31:46;14.80;99.90
13205;DHT22;6667;52.634;9.226;2022-08-21T03:34:13;14.80;99.90
13205;DHT22;6667;52.634;9.226;2022-08-21T03:36:41;14.80;99.90
13205;DHT22;6667;52.634;9.226;2022-08-21T03:39:08;14.80;99.90
13205;DHT22;6667;52.634;9.226;2022-08-21T03:41:35;14.80;99.90
13205;DHT22;6667;52.634;9.226;2022-08-21T03:44:02;14.80;99.90
13205;DHT22;6667;52.634;9.226;2022-08-21T03:46:28;14.80;99.90
13205;DHT22;6667;52.634;9.226;2022-08-21T03:48:55;14.90;99.90
13205;DHT22;6667;52.634;9.226;2022-08-21T03:51:22;14.90;99.90
13205;DHT22;6667;52.634;9.226;2022-08-21T03:53:49;15.00;99.90
13205;DHT22;6667;52.634;9.226;2022-08-21T03:56:16;15.00;99.90
13205;DHT22;6667;52.634;9.226;2022-08-21T03:58:43;15.00;99.90
13205;DHT22;6667;52.634;9.226;2022-08-21T04:01:10;15.10;99.90
13205;DHT22;6667;52.634;9.226;2022-08-21T04:03:38;15.10;99.90
13205;DHT22;6667;52.634;9.226;2022-08-21T04:06:06;15.10;99.90
13205;DHT22;6667;52.634;9.226;2022-08-21T04:08:33;15.10;99.90
13205;DHT22;6667;52.634;9.226;2022-08-21T04:11:01;15.10;99.90
13205;DHT22;6667;52.634;9.226;2022-08-21T04:13:28;15.10;99.90
13205;DHT22;6667;52.634;9.226;2022-08-21T04:15:55;15.10;99.90
13205;DHT22;6667;52.634;9.226;2022-08-21T04:18:23;15.10;99.90
13205;DHT22;6667;52.634;9.226;2022-08-21T04:20:51;15.10;99.90
13205;DHT22;6667;52.634;9.226;2022-08-21T04:23:19;15.10;99.90
13205;DHT22;6667;52.634;9.226;2022-08-21T04:25:46;15.20;99.90
13205;DHT22;6667;52.634;9.226;2022-08-21T04:28:14;15.20;99.90
13205;DHT22;6667;52.634;9.226;2022-08-21T04:30:40;15.20;99.90
13205;DHT22;6667;52.634;9.226;2022-08-21T04:33:07;15.10;99.90
13205;DHT22;6667;52.634;9.226;2022-08-21T04:35:34;15.00;99.90
13205;DHT22;6667;52.634;9.226;2022-08-21T04:38:00;15.10;99.90
13205;DHT22;6667;52.634;9.226;2022-08-21T04:40:27;15.00;99.90
13205;DHT22;6667;52.634;9.226;2022-08-21T04:42:56;15.10;99.90
13205;DHT22;6667;52.634;9.226;2022-08-21T04:45:28;15.20;99.90
13205;DHT22;6667;52.634;9.226;2022-08-21T04:47:56;15.20;99.90
13205;DHT22;6667;52.634;9.226;2022-08-21T04:50:27;15.20;99.90
13205;DHT22;6667;52.634;9.226;2022-08-21T04:52:55;15.10;99.90
13205;DHT22;6667;52.634;9.226;2022-08-21T04:55:23;15.20;99.90
13205;DHT22;6667;52.634;9.226;2022-08-21T04:57:51;15.20;99.90
13205;DHT22;6667;52.634;9.226;2022-08-21T05:00:19;15.20;99.90
13205;DHT22;6667;52.634;9.226;2022-08-21T05:02:48;15.20;99.90
13205;DHT22;6667;52.634;9.226;2022-08-21T05:05:17;15.20;99.90
13205;DHT22;6667;52.634;9.226;2022-08-21T05:07:44;15.20;99.90
13205;DHT22;6667;52.634;9.226;2022-08-21T05:10:12;15.20;99.90
13205;DHT22;6667;52.634;9.226;2022-08-21T05:12:40;15.20;99.90
13205;DHT22;6667;52.634;9.226;2022-08-21T05:15:08;15.20;99.90
13205;DHT22;6667;52.634;9.226;2022-08-21T05:17:35;15.20;99.90
13205;DHT22;6667;52.634;9.226;2022-08-21T05:20:03;15.30;99.90
13205;DHT22;6667;52.634;9.226;2022-08-21T05:22:31;15.30;99.90
13205;DHT22;6667;52.634;9.226;2022-08-21T05:24:57;15.30;99.90
13205;DHT22;6667;52.634;9.226;2022-08-21T05:27:24;15.40;99.90
13205;DHT22;6667;52.634;9.226;2022-08-21T05:29:51;15.40;99.90
13205;DHT22;6667;52.634;9.226;2022-08-21T05:32:17;15.40;99.90
13205;DHT22;6667;52.634;9.226;2022-08-21T05:34:44;15.40;99.90
13205;DHT22;6667;52.634;9.226;2022-08-21T05:37:12;15.50;99.90
13205;DHT22;6667;52.634;9.226;2022-08-21T05:39:39;15.50;99.90
13205;DHT22;6667;52.634;9.226;2022-08-21T05:42:06;15.50;99.90
13205;DHT22;6667;52.634;9.226;2022-08-21T05:44:33;15.60;99.90
13205;DHT22;6667;52.634;9.226;2022-08-21T05:47:03;15.60;99.90
13205;DHT22;6667;52.634;9.226;2022-08-21T05:49:30;15.60;99.90
13205;DHT22;6667;52.634;9.226;2022-08-21T05:51:57;15.60;99.90
13205;DHT22;6667;52.634;9.226;2022-08-21T05:54:25;15.70;99.90
13205;DHT22;6667;52.634;9.226;2022-08-21T05:56:52;15.70;99.90
13205;DHT22;6667;52.634;9.226;2022-08-21T05:59:18;15.70;99.90
13205;DHT22;6667;52.634;9.226;2022-08-21T06:01:45;15.90;99.90
13205;DHT22;6667;52.634;9.226;2022-08-21T06:04:12;16.00;99.90
13205;DHT22;6667;52.634;9.226;2022-08-21T06:06:39;16.20;99.90
13205;DHT22;6667;52.634;9.226;2022-08-21T06:09:05;16.30;99.90
13205;DHT22;6667;52.634;9.226;2022-08-21T06:11:34;16.30;99.90
13205;DHT22;6667;52.634;9.226;2022-08-21T06:14:00;16.30;99.90
13205;DHT22;6667;52.634;9.226;2022-08-21T06:16:28;16.50;99.90
13205;DHT22;6667;52.634;9.226;2022-08-21T06:18:54;17.00;99.90
13205;DHT22;6667;52.634;9.226;2022-08-21T06:21:21;17.40;99.90
13205;DHT22;6667;52.634;9.226;2022-08-21T06:23:48;17.80;99.90
13205;DHT22;6667;52.634;9.226;2022-08-21T06:26:15;17.90;99.90
13205;DHT22;6667;52.634;9.226;2022-08-21T06:28:43;18.30;99.90
13205;DHT22;6667;52.634;9.226;2022-08-21T06:31:14;18.60;99.90
13205;DHT22;6667;52.634;9.226;2022-08-21T06:33:41;18.80;99.90
13205;DHT22;6667;52.634;9.226;2022-08-21T06:36:08;19.10;99.90
13205;DHT22;6667;52.634;9.226;2022-08-21T06:38:35;19.30;99.90
13205;DHT22;6667;52.634;9.226;2022-08-21T06:41:02;19.60;99.90
13205;DHT22;6667;52.634;9.226;2022-08-21T06:43:29;19.70;99.90
13205;DHT22;6667;52.634;9.226;2022-08-21T06:45:57;19.90;99.90
13205;DHT22;6667;52.634;9.226;2022-08-21T06:48:23;20.50;99.90
13205;DHT22;6667;52.634;9.226;2022-08-21T06:50:50;20.70;99.90
13205;DHT22;6667;52.634;9.226;2022-08-21T06:53:19;20.90;99.90
13205;DHT22;6667;52.634;9.226;2022-08-21T06:55:47;21.10;99.90
13205;DHT22;6667;52.634;9.226;2022-08-21T06:58:14;21.30;99.90
13205;DHT22;6667;52.634;9.226;2022-08-21T07:00:43;21.70;99.90
13205;DHT22;6667;52.634;9.226;2022-08-21T07:03:18;21.90;99.90
13205;DHT22;6667;52.634;9.226;2022-08-21T07:05:45;22.30;99.90
13205;DHT22;6667;52.634;9.226;2022-08-21T07:08:12;22.40;99.90
13205;DHT22;6667;52.634;9.226;2022-08-21T07:10:38;22.90;99.90
13205;DHT22;6667;52.634;9.226;2022-08-21T07:13:05;23.10;99.90
13205;DHT22;6667;52.634;9.226;2022-08-21T07:15:32;23.40;99.90
13205;DHT22;6667;52.634;9.226;2022-08-21T07:20:27;23.50;99.90
13205;DHT22;6667;52.634;9.226;2022-08-21T07:22:54;23.90;99.90
13205;DHT22;6667;52.634;9.226;2022-08-21T07:25:21;24.20;99.90
13205;DHT22;6667;52.634;9.226;2022-08-21T07:27:48;24.80;99.90
13205;DHT22;6667;52.634;9.226;2022-08-21T07:30:15;25.10;99.90
13205;DHT22;6667;52.634;9.226;2022-08-21T07:32:41;25.00;99.90
13205;DHT22;6667;52.634;9.226;2022-08-21T07:35:08;25.20;99.90
13205;DHT22;6667;52.634;9.226;2022-08-21T07:37:36;25.50;99.90
13205;DHT22;6667;52.634;9.226;2022-08-21T07:40:04;26.00;99.90
13205;DHT22;6667;52.634;9.226;2022-08-21T07:42:31;26.20;99.90
13205;DHT22;6667;52.634;9.226;2022-08-21T07:44:57;26.10;99.90
13205;DHT22;6667;52.634;9.226;2022-08-21T07:47:24;26.60;99.90
13205;DHT22;6667;52.634;9.226;2022-08-21T07:49:51;27.00;99.90
13205;DHT22;6667;52.634;9.226;2022-08-21T07:52:17;27.30;99.90
13205;DHT22;6667;52.634;9.226;2022-08-21T07:54:46;27.70;99.90
13205;DHT22;6667;52.634;9.226;2022-08-21T07:57:13;27.90;99.90
13205;DHT22;6667;52.634;9.226;2022-08-21T07:59:39;28.00;99.90
13205;DHT22;6667;52.634;9.226;2022-08-21T08:02:06;28.30;99.90
13205;DHT22;6667;52.634;9.226;2022-08-21T08:04:33;28.20;99.90
13205;DHT22;6667;52.634;9.226;2022-08-21T08:06:59;28.10;99.90
13205;DHT22;6667;52.634;9.226;2022-08-21T08:09:26;28.50;99.90
13205;DHT22;6667;52.634;9.226;2022-08-21T08:11:54;29.20;99.90
13205;DHT22;6667;52.634;9.226;2022-08-21T08:14:20;29.20;99.90
13205;DHT22;6667;52.634;9.226;2022-08-21T08:16:48;29.50;99.90
13205;DHT22;6667;52.634;9.226;2022-08-21T08:19:14;29.40;99.90
13205;DHT22;6667;52.634;9.226;2022-08-21T08:21:41;29.50;99.90
13205;DHT22;6667;52.634;9.226;2022-08-21T08:24:08;30.00;99.90
13205;DHT22;6667;52.634;9.226;2022-08-21T08:26:34;30.10;99.90
13205;DHT22;6667;52.634;9.226;2022-08-21T08:29:02;30.40;99.90
13205;DHT22;6667;52.634;9.226;2022-08-21T08:31:29;30.80;99.90
13205;DHT22;6667;52.634;9.226;2022-08-21T08:33:55;30.70;99.90
13205;DHT22;6667;52.634;9.226;2022-08-21T08:36:32;30.30;99.90
13205;DHT22;6667;52.634;9.226;2022-08-21T08:38:59;30.20;99.90
13205;DHT22;6667;52.634;9.226;2022-08-21T08:41:26;30.20;99.90
13205;DHT22;6667;52.634;9.226;2022-08-21T08:43:54;30.70;99.90
13205;DHT22;6667;52.634;9.226;2022-08-21T08:46:29;30.60;99.90
13205;DHT22;6667;52.634;9.226;2022-08-21T08:49:00;31.00;99.90
13205;DHT22;6667;52.634;9.226;2022-08-21T08:51:37;31.10;99.90
13205;DHT22;6667;52.634;9.226;2022-08-21T08:54:09;30.40;99.90
13205;DHT22;6667;52.634;9.226;2022-08-21T08:56:37;31.50;99.90
13205;DHT22;6667;52.634;9.226;2022-08-21T08:59:08;31.50;99.90
13205;DHT22;6667;52.634;9.226;2022-08-21T09:01:39;31.40;99.90
13205;DHT22;6667;52.634;9.226;2022-08-21T09:04:07;31.70;99.90
13205;DHT22;6667;52.634;9.226;2022-08-21T09:06:46;32.20;99.90
13205;DHT22;6667;52.634;9.226;2022-08-21T09:09:24;31.80;99.90
13205;DHT22;6667;52.634;9.226;2022-08-21T09:11:57;31.80;99.90
13205;DHT22;6667;52.634;9.226;2022-08-21T09:14:33;31.50;99.90
13205;DHT22;6667;52.634;9.226;2022-08-21T09:17:13;31.30;99.90
13205;DHT22;6667;52.634;9.226;2022-08-21T09:19:56;31.70;99.90
13205;DHT22;6667;52.634;9.226;2022-08-21T09:22:32;31.30;99.90
13205;DHT22;6667;52.634;9.226;2022-08-21T09:25:10;31.40;99.90
13205;DHT22;6667;52.634;9.226;2022-08-21T09:27:37;31.70;99.90
13205;DHT22;6667;52.634;9.226;2022-08-21T09:30:07;32.00;99.90
13205;DHT22;6667;52.634;9.226;2022-08-21T09:32:37;32.40;99.90
13205;DHT22;6667;52.634;9.226;2022-08-21T09:35:08;32.00;99.90
13205;DHT22;6667;52.634;9.226;2022-08-21T09:37:46;31.70;99.90
13205;DHT22;6667;52.634;9.226;2022-08-21T09:40:31;31.00;99.90
13205;DHT22;6667;52.634;9.226;2022-08-21T09:43:00;31.50;99.90
13205;DHT22;6667;52.634;9.226;2022-08-21T09:45:28;32.10;99.90
13205;DHT22;6667;52.634;9.226;2022-08-21T09:47:56;32.40;99.90
13205;DHT22;6667;52.634;9.226;2022-08-21T09:50:33;32.70;99.90
13205;DHT22;6667;52.634;9.226;2022-08-21T09:53:00;32.30;99.90
13205;DHT22;6667;52.634;9.226;2022-08-21T09:55:33;32.20;99.90
13205;DHT22;6667;52.634;9.226;2022-08-21T09:58:18;31.90;99.90
13205;DHT22;6667;52.634;9.226;2022-08-21T10:00:56;32.50;99.90
13205;DHT22;6667;52.634;9.226;2022-08-21T10:03:25;32.90;99.90
13205;DHT22;6667;52.634;9.226;2022-08-21T10:05:56;33.00;99.90
13205;DHT22;6667;52.634;9.226;2022-08-21T10:08:26;32.50;99.90
13205;DHT22;6667;52.634;9.226;2022-08-21T10:10:56;32.50;99.90
13205;DHT22;6667;52.634;9.226;2022-08-21T10:13:32;31.70;99.90
13205;DHT22;6667;52.634;9.226;2022-08-21T10:16:12;31.90;99.90
13205;DHT22;6667;52.634;9.226;2022-08-21T10:18:46;32.40;99.90
13205;DHT22;6667;52.634;9.226;2022-08-21T10:21:19;32.30;99.90
13205;DHT22;6667;52.634;9.226;2022-08-21T10:23:57;33.10;99.90
13205;DHT22;6667;52.634;9.226;2022-08-21T10:26:31;32.90;99.90
13205;DHT22;6667;52.634;9.226;2022-08-21T10:29:06;33.80;99.90
13205;DHT22;6667;52.634;9.226;2022-08-21T10:31:43;33.70;99.90
13205;DHT22;6667;52.634;9.226;2022-08-21T10:34:26;33.80;99.90
13205;DHT22;6667;52.634;9.226;2022-08-21T10:37:05;33.80;99.90
13205;DHT22;6667;52.634;9.226;2022-08-21T10:39:35;33.10;99.90
13205;DHT22;6667;52.634;9.226;2022-08-21T10:42:18;32.90;99.90
13205;DHT22;6667;52.634;9.226;2022-08-21T10:44:54;32.80;99.90
13205;DHT22;6667;52.634;9.226;2022-08-21T10:47:30;33.40;99.90
13205;DHT22;6667;52.634;9.226;2022-08-21T10:50:04;33.80;99.90
13205;DHT22;6667;52.634;9.226;2022-08-21T10:52:46;33.20;99.90
13205;DHT22;6667;52.634;9.226;2022-08-21T10:55:19;32.70;99.90
13205;DHT22;6667;52.634;9.226;2022-08-21T10:57:49;32.20;99.90
13205;DHT22;6667;52.634;9.226;2022-08-21T11:00:18;31.40;99.90
13205;DHT22;6667;52.634;9.226;2022-08-21T11:02:50;31.60;99.90
13205;DHT22;6667;52.634;9.226;2022-08-21T11:05:25;32.00;99.90
13205;DHT22;6667;52.634;9.226;2022-08-21T11:07:57;32.50;99.90
13205;DHT22;6667;52.634;9.226;2022-08-21T11:10:32;32.90;99.90
13205;DHT22;6667;52.634;9.226;2022-08-21T11:13:04;33.30;99.90
13205;DHT22;6667;52.634;9.226;2022-08-21T11:15:37;33.00;99.90
13205;DHT22;6667;52.634;9.226;2022-08-21T11:18:22;32.80;99.90
13205;DHT22;6667;52.634;9.226;2022-08-21T11:21:01;32.70;99.90
13205;DHT22;6667;52.634;9.226;2022-08-21T11:23:35;33.30;99.90
13205;DHT22;6667;52.634;9.226;2022-08-21T11:26:06;33.70;99.90
13205;DHT22;6667;52.634;9.226;2022-08-21T11:28:38;33.40;99.90
13205;DHT22;6667;52.634;9.226;2022-08-21T11:31:15;33.60;99.90
13205;DHT22;6667;52.634;9.226;2022-08-21T11:33:58;33.00;99.90
13205;DHT22;6667;52.634;9.226;2022-08-21T11:36:34;32.60;99.90
13205;DHT22;6667;52.634;9.226;2022-08-21T11:39:08;32.00;99.90
13205;DHT22;6667;52.634;9.226;2022-08-21T11:41:39;31.50;99.90
13205;DHT22;6667;52.634;9.226;2022-08-21T11:44:13;31.70;99.90
13205;DHT22;6667;52.634;9.226;2022-08-21T11:46:48;31.20;99.90
13205;DHT22;6667;52.634;9.226;2022-08-21T11:49:38;31.50;99.90
13205;DHT22;6667;52.634;9.226;2022-08-21T11:52:16;32.20;99.90
13205;DHT22;6667;52.634;9.226;2022-08-21T11:54:49;32.10;99.90
13205;DHT22;6667;52.634;9.226;2022-08-21T11:57:22;32.40;99.90
13205;DHT22;6667;52.634;9.226;2022-08-21T11:59:53;32.20;99.90
13205;DHT22;6667;52.634;9.226;2022-08-21T12:02:27;32.40;99.90
13205;DHT22;6667;52.634;9.226;2022-08-21T12:04:58;31.60;99.90
13205;DHT22;6667;52.634;9.226;2022-08-21T12:07:34;30.60;99.90
13205;DHT22;6667;52.634;9.226;2022-08-21T12:10:03;31.40;99.90
13205;DHT22;6667;52.634;9.226;2022-08-21T12:12:32;31.20;99.90
13205;DHT22;6667;52.634;9.226;2022-08-21T12:15:25;31.00;99.90
13205;DHT22;6667;52.634;9.226;2022-08-21T12:17:56;31.40;99.90
13205;DHT22;6667;52.634;9.226;2022-08-21T12:20:33;30.90;99.90
13205;DHT22;6667;52.634;9.226;2022-08-21T12:23:12;31.00;99.90
13205;DHT22;6667;52.634;9.226;2022-08-21T12:25:43;30.50;99.90
13205;DHT22;6667;52.634;9.226;2022-08-21T12:28:12;30.60;99.90
13205;DHT22;6667;52.634;9.226;2022-08-21T12:30:41;30.60;99.90
13205;DHT22;6667;52.634;9.226;2022-08-21T12:33:22;30.90;99.90
13205;DHT22;6667;52.634;9.226;2022-08-21T12:35:51;31.60;99.90
13205;DHT22;6667;52.634;9.226;2022-08-21T12:38:22;31.80;99.90
13205;DHT22;6667;52.634;9.226;2022-08-21T12:40:53;31.60;99.90
13205;DHT22;6667;52.634;9.226;2022-08-21T12:43:26;31.60;99.90
13205;DHT22;6667;52.634;9.226;2022-08-21T12:45:54;31.80;99.90
13205;DHT22;6667;52.634;9.226;2022-08-21T12:48:26;31.50;99.90
13205;DHT22;6667;52.634;9.226;2022-08-21T12:50:55;31.70;99.90
13205;DHT22;6667;52.634;9.226;2022-08-21T12:53:28;31.20;99.90
13205;DHT22;6667;52.634;9.226;2022-08-21T12:55:57;31.20;99.90
13205;DHT22;6667;52.634;9.226;2022-08-21T12:58:29;30.70;99.90
13205;DHT22;6667;52.634;9.226;2022-08-21T13:01:00;30.50;99.90
13205;DHT22;6667;52.634;9.226;2022-08-21T13:03:28;30.50;99.90
13205;DHT22;6667;52.634;9.226;2022-08-21T13:05:55;30.70;99.90
13205;DHT22;6667;52.634;9.226;2022-08-21T13:08:26;30.80;99.90
13205;DHT22;6667;52.634;9.226;2022-08-21T13:10:58;30.60;99.90
13205;DHT22;6667;52.634;9.226;2022-08-21T13:13:26;30.90;99.90
13205;DHT22;6667;52.634;9.226;2022-08-21T13:15:57;31.20;99.90
13205;DHT22;6667;52.634;9.226;2022-08-21T13:18:35;31.40;99.90
13205;DHT22;6667;52.634;9.226;2022-08-21T13:21:05;31.00;99.90
13205;DHT22;6667;52.634;9.226;2022-08-21T13:23:34;30.90;99.90
13205;DHT22;6667;52.634;9.226;2022-08-21T13:26:00;30.30;99.90
13205;DHT22;6667;52.634;9.226;2022-08-21T13:28:33;30.20;99.90
13205;DHT22;6667;52.634;9.226;2022-08-21T13:31:07;29.80;99.90
13205;DHT22;6667;52.634;9.226;2022-08-21T13:33:34;29.70;99.90
13205;DHT22;6667;52.634;9.226;2022-08-21T13:36:09;29.60;99.90
13205;DHT22;6667;52.634;9.226;2022-08-21T13:38:39;29.90;99.90
13205;DHT22;6667;52.634;9.226;2022-08-21T13:41:16;29.90;99.90
13205;DHT22;6667;52.634;9.226;2022-08-21T13:43:50;29.90;99.90
13205;DHT22;6667;52.634;9.226;2022-08-21T13:46:17;29.90;99.90
13205;DHT22;6667;52.634;9.226;2022-08-21T13:48:46;29.80;99.90
13205;DHT22;6667;52.634;9.226;2022-08-21T13:51:13;29.50;99.90
13205;DHT22;6667;52.634;9.226;2022-08-21T13:53:47;29.10;99.90
13205;DHT22;6667;52.634;9.226;2022-08-21T13:56:22;29.10;99.90
13205;DHT22;6667;52.634;9.226;2022-08-21T13:58:51;29.00;99.90
13205;DHT22;6667;52.634;9.226;2022-08-21T14:01:21;29.10;99.90
13205;DHT22;6667;52.634;9.226;2022-08-21T14:03:50;29.20;99.90
13205;DHT22;6667;52.634;9.226;2022-08-21T14:06:20;29.30;99.90
13205;DHT22;6667;52.634;9.226;2022-08-21T14:08:51;29.70;99.90
13205;DHT22;6667;52.634;9.226;2022-08-21T14:11:20;29.60;99.90
13205;DHT22;6667;52.634;9.226;2022-08-21T14:13:50;29.10;99.90
13205;DHT22;6667;52.634;9.226;2022-08-21T14:16:20;28.90;99.90
13205;DHT22;6667;52.634;9.226;2022-08-21T14:18:51;28.80;99.90
13205;DHT22;6667;52.634;9.226;2022-08-21T14:21:29;29.00;99.90
13205;DHT22;6667;52.634;9.226;2022-08-21T14:24:08;29.20;99.90
13205;DHT22;6667;52.634;9.226;2022-08-21T14:26:37;28.90;99.90
13205;DHT22;6667;52.634;9.226;2022-08-21T14:29:11;29.10;99.90
13205;DHT22;6667;52.634;9.226;2022-08-21T14:31:38;28.90;99.90
13205;DHT22;6667;52.634;9.226;2022-08-21T14:34:05;28.90;99.90
13205;DHT22;6667;52.634;9.226;2022-08-21T14:36:32;28.90;99.90
13205;DHT22;6667;52.634;9.226;2022-08-21T14:38:58;28.80;99.90
13205;DHT22;6667;52.634;9.226;2022-08-21T14:41:28;28.70;99.90
13205;DHT22;6667;52.634;9.226;2022-08-21T14:43:56;28.50;99.90
13205;DHT22;6667;52.634;9.226;2022-08-21T14:46:25;28.80;99.90
13205;DHT22;6667;52.634;9.226;2022-08-21T14:48:52;28.80;99.90
13205;DHT22;6667;52.634;9.226;2022-08-21T14:51:18;28.60;99.90
13205;DHT22;6667;52.634;9.226;2022-08-21T14:53:46;28.60;99.90
13205;DHT22;6667;52.634;9.226;2022-08-21T14:56:13;28.70;99.90
13205;DHT22;6667;52.634;9.226;2022-08-21T14:58:44;28.40;99.90
13205;DHT22;6667;52.634;9.226;2022-08-21T15:01:13;28.50;99.90
13205;DHT22;6667;52.634;9.226;2022-08-21T15:03:40;28.60;99.90
13205;DHT22;6667;52.634;9.226;2022-08-21T15:06:07;28.30;99.90
13205;DHT22;6667;52.634;9.226;2022-08-21T15:08:34;28.30;99.90
13205;DHT22;6667;52.634;9.226;2022-08-21T15:11:01;28.20;99.90
13205;DHT22;6667;52.634;9.226;2022-08-21T15:13:29;28.20;99.90
13205;DHT22;6667;52.634;9.226;2022-08-21T15:15:58;28.00;99.90
13205;DHT22;6667;52.634;9.226;2022-08-21T15:18:27;28.00;99.90
13205;DHT22;6667;52.634;9.226;2022-08-21T15:20:54;27.90;99.90
13205;DHT22;6667;52.634;9.226;2022-08-21T15:23:21;27.80;99.90
13205;DHT22;6667;52.634;9.226;2022-08-21T15:25:49;27.90;99.90
13205;DHT22;6667;52.634;9.226;2022-08-21T15:28:16;28.00;99.90
13205;DHT22;6667;52.634;9.226;2022-08-21T15:30:45;27.60;99.90
13205;DHT22;6667;52.634;9.226;2022-08-21T15:33:13;27.50;99.90
13205;DHT22;6667;52.634;9.226;2022-08-21T15:35:40;27.40;99.90
13205;DHT22;6667;52.634;9.226;2022-08-21T15:38:06;27.40;99.90
13205;DHT22;6667;52.634;9.226;2022-08-21T15:40:34;27.30;99.90
13205;DHT22;6667;52.634;9.226;2022-08-21T15:43:02;27.30;99.90
13205;DHT22;6667;52.634;9.226;2022-08-21T15:45:30;27.10;99.90
13205;DHT22;6667;52.634;9.226;2022-08-21T15:47:56;27.10;99.90
13205;DHT22;6667;52.634;9.226;2022-08-21T15:50:25;27.20;99.90
13205;DHT22;6667;52.634;9.226;2022-08-21T15:52:52;27.40;99.90
13205;DHT22;6667;52.634;9.226;2022-08-21T15:55:19;27.30;99.90
13205;DHT22;6667;52.634;9.226;2022-08-21T15:57:49;27.20;99.90
13205;DHT22;6667;52.634;9.226;2022-08-21T16:00:17;27.30;99.90
13205;DHT22;6667;52.634;9.226;2022-08-21T16:02:47;27.30;99.90